Ciudad Guayana, Venezuela
Current Conditions -  °F | °C
As of 5:00 PM on Monday 24 Nov 2014 (Local Time) from TTPP Reporting Station
Scattered Clouds Scattered Clouds  
Wind Chill: 28°   Ceiling: Unl
Heat Index: 31°   Visibility: 6mi
Dew Point: 23°   Wind: 14mph
Humidity: 74%   Direction: 90°E
Pressure: 29.85"   Gusts: NA
Location:  8.37°N, 62.62°W
Report Text: TTPP 242100Z 09012KT 9999 SCT018 28/23 Q1011 NOSIG
Loading
Personal Weather Stations






























Interactive Weather Map New forecast layout! Learn more

10-Day Weather Forecast

Advertisements
Track Severe Weather on mobile